Decoded Metar for KLXT (LEES SUMMIT MUNI in MO, USA) (IATA:LXT) | Meteo·Mobile Aviation Weather
aviador You're here:

KLXT Decoded Metar

LEES SUMMIT MUNI in MO, USA
Report Time2018-11-21 01:53:00
UTC Time2018-11-21 01:56:13
Flight Rules vfr VFR
Wind220° at 11 kt
W.Decomp.*RWY 18: 8.7 kt HW 6.8 kt RCW
RWY 29: 3.4 kt HW 10.5 kt LCW
W.Rank220° ranks 6
Current wind is above 220° avg. (9.3)
Visibility9999 m
Phenomena:N/A
Clouds:N/A
Expected CloudBase > 2,000 ft AGL from Temp-Dew spread
CeilingNone
Temp04°C (ISA -9)
Dew Point-1°C (70% RH)
AAT-2.1°C
QNH1024 hPa
Density Alt-374 ft
Elevation1,004 ft
Report Wrong Elevation
Raw Report
METAR KLXT 210153Z AUTO 22011KT 10SM CLR 04/M01 A3023 RMK AO2 SLP247
T00441011=

Extra information for KLXT:More info

Metar Taf Metar & Taf Last 4 Metars F.Rules Stats Wind Profile Meteogram Temp Stats Airport Information Weather charts Add Link Nearby VenuesMetar ALERT Operation Metar Decoded Social comments

AIRNAV info for KLXT